createdAt,value
2019-05-20T00:02:21.646Z,43.9
2019-05-20T00:07:23.249Z,43.8
2019-05-20T00:12:23.467Z,43.8
2019-05-20T00:17:23.666Z,43.7
2019-05-20T00:22:23.845Z,43.7
2019-05-20T00:27:24.012Z,43.6
2019-05-20T00:32:38.728Z,43.6
2019-05-20T00:37:40.619Z,43.5
2019-05-20T00:42:40.788Z,43.5
2019-05-20T00:47:40.937Z,43.4
2019-05-20T00:52:41.100Z,43.4
2019-05-20T00:57:41.291Z,43.3
2019-05-20T01:02:55.972Z,43.3
2019-05-20T01:07:56.838Z,43.3
2019-05-20T01:12:57.000Z,43.2
2019-05-20T01:17:58.827Z,43.1
2019-05-20T01:23:00.621Z,43.1
2019-05-20T01:28:02.434Z,43.1
2019-05-20T01:33:13.104Z,43
2019-05-20T01:38:14.036Z,42.9
2019-05-20T01:43:15.859Z,42.9
2019-05-20T01:48:16.156Z,42.8
2019-05-20T01:53:17.976Z,42.8
2019-05-20T01:58:19.827Z,42.7
2019-05-20T02:03:30.784Z,42.7
2019-05-20T02:08:33.501Z,42.6
2019-05-20T02:13:33.677Z,42.6
2019-05-20T02:18:34.562Z,42.5
2019-05-20T02:23:36.370Z,42.5
2019-05-20T02:28:38.177Z,42.4
2019-05-20T02:33:50.529Z,42.4
2019-05-20T02:38:53.702Z,42.3
2019-05-20T02:43:55.521Z,42.3
2019-05-20T02:48:57.325Z,42.2
2019-05-20T02:53:59.118Z,42.2
2019-05-20T02:59:00.904Z,42.2
2019-05-20T03:04:11.306Z,42.1
2019-05-20T03:09:13.843Z,42.1
2019-05-20T03:14:15.642Z,42
2019-05-20T03:19:17.452Z,42
2019-05-20T03:24:19.209Z,41.9
2019-05-20T03:29:20.966Z,41.9
2019-05-20T03:34:42.868Z,41.8
2019-05-20T03:39:47.086Z,41.8
2019-05-20T03:44:48.858Z,41.7
2019-05-20T03:49:50.625Z,41.7
2019-05-20T03:54:52.374Z,41.6
2019-05-20T03:59:54.116Z,41.6
2019-05-20T04:05:01.726Z,41.6
2019-05-20T04:10:04.593Z,41.5
2019-05-20T04:15:06.357Z,41.4
2019-05-20T04:20:08.109Z,41.4
2019-05-20T04:25:09.843Z,41.4
2019-05-20T04:30:12.284Z,41.3
2019-05-20T04:35:21.846Z,41.2
2019-05-20T04:40:24.569Z,41.2
2019-05-20T04:45:26.311Z,41.2
2019-05-20T04:50:28.087Z,41.1
2019-05-20T04:55:29.790Z,41.1
2019-05-20T05:00:31.495Z,41.1
2019-05-20T05:05:37.372Z,41
2019-05-20T05:10:39.413Z,41
2019-05-20T05:15:41.181Z,40.9
2019-05-20T05:20:42.961Z,40.9
2019-05-20T05:25:44.756Z,40.9
2019-05-20T05:30:46.539Z,40.8
2019-05-20T05:35:53.076Z,40.8
2019-05-20T05:40:55.426Z,40.8
2019-05-20T05:45:57.425Z,40.7
2019-05-20T05:50:59.194Z,40.7
2019-05-20T05:56:00.955Z,40.6
2019-05-20T06:01:01.772Z,40.6
2019-05-20T06:06:11.898Z,40.6
2019-05-20T06:11:14.346Z,40.5
2019-05-20T06:16:16.148Z,40.4
2019-05-20T06:21:17.912Z,40.4
2019-05-20T06:26:19.665Z,40.4
2019-05-20T06:31:21.419Z,40.4
2019-05-20T06:36:26.724Z,40.3
2019-05-20T06:41:28.916Z,40.2
2019-05-20T06:46:30.673Z,40.2
2019-05-20T06:51:32.419Z,40.2
2019-05-20T06:56:34.238Z,40.1
2019-05-20T07:01:36.021Z,40.1
2019-05-20T07:06:46.277Z,40.1
2019-05-20T07:11:52.486Z,40.1
2019-05-20T07:16:54.863Z,40
2019-05-20T07:21:56.612Z,40
2019-05-20T07:26:58.356Z,39.9
2019-05-20T07:32:00.080Z,39.9
2019-05-20T07:37:03.507Z,39.8
2019-05-20T07:42:05.762Z,39.8
2019-05-20T07:47:10.557Z,39.7
2019-05-20T07:52:12.769Z,39.7
2019-05-20T07:57:14.541Z,39.7
2019-05-20T08:02:15.295Z,39.7
2019-05-20T08:07:27.133Z,39.6
2019-05-20T08:12:29.428Z,39.6
2019-05-20T08:17:31.159Z,39.6
2019-05-20T08:22:32.882Z,39.5
2019-05-20T08:27:33.656Z,39.5
2019-05-20T08:32:35.607Z,39.4
2019-05-20T08:37:45.154Z,39.4
2019-05-20T08:42:47.433Z,39.4
2019-05-20T08:47:49.204Z,39.4
2019-05-20T08:52:50.926Z,39.3
2019-05-20T08:57:52.643Z,39.2
2019-05-20T09:02:54.366Z,39.2
2019-05-20T09:08:02.716Z,39.2
2019-05-20T09:13:05.167Z,39.2
2019-05-20T09:18:06.914Z,39.1
2019-05-20T09:23:08.611Z,39.1
2019-05-20T09:28:10.460Z,39.1
2019-05-20T09:33:12.156Z,39
2019-05-20T09:38:19.919Z,39
2019-05-20T09:43:22.549Z,38.9
2019-05-20T09:48:25.146Z,38.9
2019-05-20T09:53:27.069Z,38.9
2019-05-20T09:58:28.773Z,38.9
2019-05-20T10:03:30.481Z,38.8
2019-05-20T10:08:37.863Z,38.8
2019-05-20T10:13:42.606Z,38.7
2019-05-20T10:18:44.310Z,38.7
2019-05-20T10:23:46.019Z,38.7
2019-05-20T10:28:47.874Z,38.7
2019-05-20T10:33:49.626Z,38.6
2019-05-20T10:38:58.307Z,38.6
2019-05-20T10:44:00.751Z,38.6
2019-05-20T10:49:02.466Z,38.5
2019-05-20T10:54:04.302Z,38.5
2019-05-20T10:59:05.992Z,38.5
2019-05-20T11:04:07.682Z,38.4
2019-05-20T11:09:13.879Z,38.4
2019-05-20T11:14:16.107Z,38.4
2019-05-20T11:19:17.804Z,38.4
2019-05-20T11:24:19.487Z,38.3
2019-05-20T11:29:21.335Z,38.3
2019-05-20T11:34:23.035Z,38.2
2019-05-20T11:39:33.066Z,38.2
2019-05-20T11:44:34.978Z,38.2
2019-05-20T11:49:36.665Z,38.2
2019-05-20T11:54:38.337Z,38.1
2019-05-20T11:59:39.998Z,38.1
2019-05-20T12:04:41.656Z,38.1
2019-05-20T12:09:49.389Z,38.1
2019-05-20T12:14:51.519Z,38
2019-05-20T12:19:53.213Z,38
2019-05-20T12:24:54.912Z,37.9
2019-05-20T12:29:56.571Z,37.9
2019-05-20T12:34:58.254Z,37.9
2019-05-20T12:40:06.847Z,37.9
2019-05-20T12:45:08.902Z,37.9
2019-05-20T12:50:10.540Z,37.8
2019-05-20T12:55:12.181Z,37.8
2019-05-20T13:00:13.834Z,37.7
2019-05-20T13:05:15.467Z,37.7
2019-05-20T13:10:28.710Z,37.7
2019-05-20T13:15:31.543Z,37.7
2019-05-20T13:20:33.309Z,37.6
2019-05-20T13:25:34.936Z,37.6
2019-05-20T13:30:36.552Z,37.6
2019-05-20T13:35:38.198Z,37.6
2019-05-20T13:40:46.189Z,37.5
2019-05-20T13:45:48.596Z,37.5
2019-05-20T13:50:50.323Z,37.4
2019-05-20T13:55:51.947Z,37.4
2019-05-20T14:00:53.559Z,37.4
2019-05-20T14:05:55.170Z,37.4
2019-05-20T14:11:03.940Z,37.4
2019-05-20T14:16:06.333Z,37.3
2019-05-20T14:21:07.970Z,37.3
2019-05-20T14:26:09.609Z,37.2
2019-05-20T14:31:11.249Z,37.2
2019-05-20T14:36:12.892Z,37.2
2019-05-20T14:41:21.335Z,37.2
2019-05-20T14:46:23.663Z,37.2
2019-05-20T14:51:25.278Z,37.1
2019-05-20T14:56:26.889Z,36.9
2019-05-20T15:01:28.515Z,36.9
2019-05-20T15:06:30.155Z,36.8
2019-05-20T15:11:37.948Z,36.7
2019-05-20T15:16:40.270Z,36.7
2019-05-20T15:21:41.927Z,36.7
2019-05-20T15:26:43.616Z,36.7
2019-05-20T15:31:45.626Z,36.7
2019-05-20T15:36:47.263Z,36.6
2019-05-20T15:41:48.930Z,36.6
2019-05-20T15:46:50.574Z,36.6
2019-05-20T15:51:52.240Z,36.6
2019-05-20T15:56:53.884Z,38.1
2019-05-20T16:01:55.642Z,39.4
2019-05-20T16:07:00.056Z,40.5
2019-05-20T16:12:02.068Z,41.3
2019-05-20T16:17:03.840Z,42.1
2019-05-20T16:22:03.986Z,42.8
2019-05-20T16:27:04.150Z,43.4
2019-05-20T16:32:04.573Z,43.9
2019-05-20T16:37:04.768Z,44.5
2019-05-20T16:42:04.995Z,44.6
2019-05-20T16:47:05.258Z,45.1
2019-05-20T16:52:05.593Z,45.4
2019-05-20T16:57:06.143Z,45.8
2019-05-20T17:02:06.446Z,46.1
2019-05-20T17:07:06.708Z,46.4
2019-05-20T17:12:07.071Z,46.7
2019-05-20T17:17:07.507Z,46.9
2019-05-20T17:22:07.764Z,47.1
2019-05-20T17:27:08.018Z,47.3
2019-05-20T17:32:08.357Z,47.5
2019-05-20T17:37:08.951Z,47.7
2019-05-20T17:42:09.241Z,47.7
2019-05-20T17:47:09.528Z,47.8
2019-05-20T17:52:09.797Z,47.9
2019-05-20T17:57:10.729Z,47.9
2019-05-20T18:02:11.018Z,47.9
2019-05-20T18:07:11.355Z,48
2019-05-20T18:12:11.668Z,47.9
2019-05-20T18:17:11.946Z,47.9
2019-05-20T18:22:12.262Z,48.1
2019-05-20T18:27:12.568Z,48.1
2019-05-20T18:32:12.870Z,48.1
2019-05-20T18:37:13.249Z,48
2019-05-20T18:42:13.605Z,48
2019-05-20T18:47:13.923Z,48.1
2019-05-20T18:52:14.263Z,48.1
2019-05-20T18:57:14.567Z,48.1
2019-05-20T19:02:14.888Z,48.1
2019-05-20T19:07:15.455Z,48
2019-05-20T19:12:15.718Z,47.6
2019-05-20T19:17:16.001Z,47.5
2019-05-20T19:22:16.315Z,47.4
2019-05-20T19:27:16.561Z,47.4
2019-05-20T19:32:16.814Z,47.4
2019-05-20T19:37:17.054Z,47.3
2019-05-20T19:42:17.564Z,47.3
2019-05-20T19:47:17.854Z,47.2
2019-05-20T19:52:18.150Z,47.2
2019-05-20T19:57:18.429Z,47.2
2019-05-20T20:02:18.660Z,47.1
2019-05-20T20:07:19.145Z,47.1
2019-05-20T20:12:19.389Z,47.1
2019-05-20T20:17:19.643Z,47
2019-05-20T20:22:19.939Z,46.9
2019-05-20T20:27:20.230Z,46.9
2019-05-20T20:32:36.654Z,46.8
2019-05-20T20:37:37.844Z,46.7
2019-05-20T20:42:38.100Z,46.7
2019-05-20T20:47:41.998Z,46.6
2019-05-20T20:52:42.779Z,46.6
2019-05-20T20:57:43.030Z,46.6
2019-05-20T21:02:52.505Z,46.5
2019-05-20T21:07:53.418Z,46.4
2019-05-20T21:12:53.739Z,46.4
2019-05-20T21:17:54.005Z,46.4
2019-05-20T21:22:54.300Z,46.3
2019-05-20T21:27:54.795Z,46.2
2019-05-20T21:33:08.127Z,46.2
2019-05-20T21:38:08.670Z,46.1
2019-05-20T21:43:08.908Z,46.1
2019-05-20T21:48:09.167Z,46.1
2019-05-20T21:53:09.398Z,46
2019-05-20T21:58:09.897Z,45.9
2019-05-20T22:03:23.504Z,45.9
2019-05-20T22:08:24.354Z,45.8
2019-05-20T22:13:24.602Z,45.8
2019-05-20T22:18:24.849Z,45.7
2019-05-20T22:23:25.088Z,45.6
2019-05-20T22:28:25.337Z,45.6
2019-05-20T22:33:40.137Z,45.5
2019-05-20T22:38:41.053Z,45.5
2019-05-20T22:43:41.300Z,45.4
2019-05-20T22:48:41.545Z,45.4
2019-05-20T22:53:41.763Z,45.3
2019-05-20T22:58:41.988Z,45.2
2019-05-20T23:03:55.539Z,45.2
2019-05-20T23:08:56.283Z,45.1
2019-05-20T23:13:56.491Z,45.1
2019-05-20T23:18:56.690Z,45
2019-05-20T23:23:57.172Z,45
2019-05-20T23:28:57.365Z,44.9
2019-05-20T23:34:11.630Z,44.9
2019-05-20T23:39:12.007Z,44.8
2019-05-20T23:44:12.201Z,44.7
2019-05-20T23:49:12.405Z,44.7
2019-05-20T23:54:12.574Z,44.6
2019-05-20T23:59:12.765Z,44.6
